createdAt,value
2022-10-11T00:01:19.393Z,46.32
2022-10-11T00:03:45.942Z,46.06
2022-10-11T00:06:12.537Z,46.10
2022-10-11T00:08:39.191Z,46.18
2022-10-11T00:11:07.358Z,46.32
2022-10-11T00:13:34.082Z,46.18
2022-10-11T00:16:00.668Z,46.23
2022-10-11T00:18:27.226Z,46.10
2022-10-11T00:21:05.643Z,46.11
2022-10-11T00:23:33.224Z,46.56
2022-10-11T00:26:00.926Z,46.17
2022-10-11T00:28:27.724Z,46.25
2022-10-11T00:30:54.361Z,46.42
2022-10-11T00:33:20.988Z,46.03
2022-10-11T00:35:48.716Z,46.08
2022-10-11T00:38:15.505Z,46.14
2022-10-11T00:40:42.070Z,45.96
2022-10-11T00:43:17.702Z,46.05
2022-10-11T00:45:59.298Z,46.05
2022-10-11T00:48:45.324Z,46.16
2022-10-11T00:51:24.941Z,46.22
2022-10-11T00:53:52.138Z,46.25
2022-10-11T00:56:28.056Z,46.30
2022-10-11T00:58:55.919Z,46.49
2022-10-11T01:01:22.505Z,46.36
2022-10-11T01:03:49.107Z,46.58
2022-10-11T01:06:16.144Z,46.27
2022-10-11T01:08:42.778Z,46.64
2022-10-11T01:11:12.952Z,46.33
2022-10-11T01:14:09.350Z,46.41
2022-10-11T01:16:59.313Z,46.50
2022-10-11T01:19:40.768Z,46.54
2022-10-11T01:22:51.858Z,46.57
2022-10-11T01:25:34.258Z,46.56
2022-10-11T01:28:16.021Z,46.40
2022-10-11T01:30:43.368Z,46.30
2022-10-11T01:33:45.328Z,46.35
2022-10-11T01:36:27.617Z,46.48
2022-10-11T01:38:59.800Z,46.54
2022-10-11T01:41:31.232Z,46.51
2022-10-11T01:44:01.611Z,46.40
2022-10-11T01:46:29.177Z,46.71
2022-10-11T01:48:57.941Z,46.91
2022-10-11T01:51:33.616Z,46.69
2022-10-11T01:54:44.123Z,46.69
2022-10-11T01:57:48.491Z,46.63
2022-10-11T02:00:26.519Z,46.89
2022-10-11T02:02:56.723Z,46.67
2022-10-11T02:05:29.229Z,46.88
2022-10-11T02:08:02.926Z,46.84
2022-10-11T02:11:06.855Z,46.81
2022-10-11T02:14:00.129Z,46.83
2022-10-11T02:16:31.337Z,47.14
2022-10-11T02:18:58.772Z,47.09
2022-10-11T02:21:26.005Z,47.02
2022-10-11T02:24:00.547Z,46.94
2022-10-11T02:26:30.150Z,46.71
2022-10-11T02:28:58.474Z,46.83
2022-10-11T02:31:25.738Z,46.93
2022-10-11T02:34:10.574Z,47.31
2022-10-11T02:36:50.033Z,47.20
2022-10-11T02:39:40.167Z,47.00
2022-10-11T02:42:11.070Z,47.15
2022-10-11T02:44:41.886Z,47.09
2022-10-11T02:47:08.984Z,47.35
2022-10-11T02:49:35.816Z,47.25
2022-10-11T02:52:05.412Z,47.23
2022-10-11T02:54:32.001Z,47.11
2022-10-11T02:56:58.647Z,47.26
2022-10-11T02:59:25.254Z,46.95
2022-10-11T03:01:51.798Z,47.21
2022-10-11T03:04:18.344Z,47.02
2022-10-11T03:06:44.893Z,47.15
2022-10-11T03:09:11.424Z,47.16
2022-10-11T03:11:37.992Z,47.27
2022-10-11T03:14:04.559Z,46.98
2022-10-11T03:16:31.090Z,47.24
2022-10-11T03:18:57.621Z,47.08
2022-10-11T03:21:25.210Z,47.06
2022-10-11T03:23:51.975Z,47.13
2022-10-11T03:26:18.569Z,47.09
2022-10-11T03:28:45.317Z,47.08
2022-10-11T03:31:12.108Z,47.07
2022-10-11T03:33:38.808Z,47.41
2022-10-11T03:36:06.078Z,47.14
2022-10-11T03:38:33.334Z,47.20
2022-10-11T03:40:59.904Z,47.17
2022-10-11T03:43:26.501Z,47.25
2022-10-11T03:45:53.036Z,47.19
2022-10-11T03:48:19.557Z,47.29
2022-10-11T03:50:46.115Z,47.02
2022-10-11T03:53:12.667Z,47.42
2022-10-11T03:55:40.331Z,47.15
2022-10-11T03:58:07.462Z,47.02
2022-10-11T04:00:34.748Z,46.85
2022-10-11T04:03:03.685Z,47.08
2022-10-11T04:05:30.478Z,47.08
2022-10-11T04:07:57.130Z,47.21
2022-10-11T04:10:23.712Z,47.26
2022-10-11T04:12:50.261Z,47.05
2022-10-11T04:15:16.922Z,47.35
2022-10-11T04:17:43.500Z,47.21
2022-10-11T04:20:10.337Z,47.27
2022-10-11T04:22:37.108Z,47.05
2022-10-11T04:25:04.188Z,47.20
2022-10-11T04:27:30.965Z,47.12
2022-10-11T04:29:57.507Z,47.19
2022-10-11T04:32:24.090Z,47.29
2022-10-11T04:34:51.365Z,47.21
2022-10-11T04:37:18.475Z,47.42
2022-10-11T04:39:45.153Z,47.37
2022-10-11T04:42:11.697Z,47.25
2022-10-11T04:44:38.340Z,47.22
2022-10-11T04:47:05.161Z,47.52
2022-10-11T04:49:31.711Z,47.52
2022-10-11T04:51:58.245Z,47.25
2022-10-11T04:54:24.892Z,47.42
2022-10-11T04:56:51.434Z,47.56
2022-10-11T04:59:18.055Z,47.54
2022-10-11T05:01:44.752Z,47.40
2022-10-11T05:04:11.417Z,47.52
2022-10-11T05:06:38.005Z,47.38
2022-10-11T05:09:04.620Z,47.42
2022-10-11T05:11:31.146Z,47.67
2022-10-11T05:13:57.698Z,47.65
2022-10-11T05:16:24.299Z,47.62
2022-10-11T05:18:50.835Z,47.42
2022-10-11T05:21:25.623Z,47.55
2022-10-11T05:23:53.567Z,47.36
2022-10-11T05:26:20.536Z,47.53
2022-10-11T05:28:48.006Z,47.61
2022-10-11T05:31:15.022Z,47.69
2022-10-11T05:33:42.389Z,47.73
2022-10-11T05:36:09.791Z,47.71
2022-10-11T05:38:37.424Z,47.42
2022-10-11T05:41:04.924Z,47.54
2022-10-11T05:43:32.230Z,47.58
2022-10-11T05:45:59.499Z,47.62
2022-10-11T05:48:26.864Z,48.11
2022-10-11T05:50:58.044Z,47.66
2022-10-11T05:53:24.609Z,47.96
2022-10-11T05:55:51.165Z,47.69
2022-10-11T05:58:18.639Z,47.81
2022-10-11T06:00:45.175Z,48.05
2022-10-11T06:03:12.658Z,47.84
2022-10-11T06:05:39.364Z,47.99
2022-10-11T06:08:07.245Z,47.60
2022-10-11T06:10:33.970Z,47.79
2022-10-11T06:13:00.630Z,47.94
2022-10-11T06:15:27.583Z,47.81
2022-10-11T06:17:54.241Z,47.67
2022-10-11T06:20:20.925Z,47.59
2022-10-11T06:22:47.484Z,47.50
2022-10-11T06:25:14.117Z,47.40
2022-10-11T06:27:40.686Z,47.89
2022-10-11T06:30:07.857Z,47.29
2022-10-11T06:32:34.452Z,47.32
2022-10-11T06:35:03.294Z,47.16
2022-10-11T06:37:30.261Z,47.62
2022-10-11T06:39:56.822Z,47.36
2022-10-11T06:42:23.412Z,47.92
2022-10-11T06:44:49.949Z,48.46
2022-10-11T06:47:16.475Z,47.88
2022-10-11T06:49:43.032Z,47.87
2022-10-11T06:52:09.590Z,47.91
2022-10-11T06:54:36.137Z,47.92
2022-10-11T06:57:02.697Z,47.68
2022-10-11T06:59:29.265Z,47.84
2022-10-11T07:01:55.820Z,47.90
2022-10-11T07:04:22.387Z,47.66
2022-10-11T07:06:49.003Z,48.61
2022-10-11T07:09:15.562Z,48.43
2022-10-11T07:11:42.112Z,48.52
2022-10-11T07:14:09.714Z,48.23
2022-10-11T07:16:36.712Z,48.22
2022-10-11T07:19:05.695Z,48.27
2022-10-11T07:21:33.818Z,48.20
2022-10-11T07:24:01.147Z,48.14
2022-10-11T07:26:28.315Z,48.40
2022-10-11T07:28:55.129Z,48.27
2022-10-11T07:31:23.509Z,48.34
2022-10-11T07:33:50.096Z,48.34
2022-10-11T07:36:16.887Z,48.43
2022-10-11T07:38:44.653Z,48.19
2022-10-11T07:41:11.937Z,48.24
2022-10-11T07:43:39.040Z,48.38
2022-10-11T07:46:06.391Z,47.82
2022-10-11T07:48:34.866Z,48.04
2022-10-11T07:51:08.851Z,48.09
2022-10-11T07:53:52.899Z,48.11
2022-10-11T07:56:23.688Z,48.28
2022-10-11T07:58:52.079Z,48.11
2022-10-11T08:01:18.970Z,48.11
2022-10-11T08:03:45.597Z,47.83
2022-10-11T08:06:14.243Z,47.85
2022-10-11T08:08:40.805Z,47.90
2022-10-11T08:11:07.521Z,47.89
2022-10-11T08:13:34.305Z,47.67
2022-10-11T08:16:01.170Z,47.70
2022-10-11T08:18:27.917Z,47.78
2022-10-11T08:20:54.564Z,47.51
2022-10-11T08:23:21.096Z,47.49
2022-10-11T08:25:48.248Z,47.54
2022-10-11T08:28:17.540Z,47.14
2022-10-11T08:30:49.211Z,46.96
2022-10-11T08:33:17.139Z,47.16
2022-10-11T08:35:44.249Z,46.95
2022-10-11T08:38:11.033Z,47.06
2022-10-11T08:40:37.761Z,47.13
2022-10-11T08:43:06.800Z,47.37
2022-10-11T08:45:39.592Z,47.07
2022-10-11T08:48:15.813Z,47.16
2022-10-11T08:50:44.852Z,47.23
2022-10-11T08:53:35.840Z,47.31
2022-10-11T08:56:03.234Z,47.48
2022-10-11T08:58:57.698Z,47.36
2022-10-11T09:01:26.797Z,47.29
2022-10-11T09:03:53.689Z,47.25
2022-10-11T09:06:23.198Z,47.39
2022-10-11T09:09:37.957Z,47.22
2022-10-11T09:12:14.094Z,47.12
2022-10-11T09:15:09.938Z,47.38
2022-10-11T09:17:55.532Z,47.23
2022-10-11T09:20:40.272Z,47.07
2022-10-11T09:23:25.601Z,47.02
2022-10-11T09:25:55.793Z,47.32
2022-10-11T09:28:39.777Z,47.05
2022-10-11T09:31:09.773Z,47.22
2022-10-11T09:33:50.997Z,46.92
2022-10-11T09:36:36.320Z,46.68
2022-10-11T09:39:22.062Z,46.87
2022-10-11T09:42:09.025Z,46.56
2022-10-11T09:44:47.685Z,46.42
2022-10-11T09:47:26.382Z,46.86
2022-10-11T09:49:57.733Z,46.70
2022-10-11T09:52:24.569Z,46.76
2022-10-11T09:54:54.717Z,46.14
2022-10-11T09:57:25.505Z,46.64
2022-10-11T10:00:06.686Z,46.87
2022-10-11T10:02:54.532Z,46.76
2022-10-11T10:05:22.283Z,46.79
2022-10-11T10:08:10.619Z,46.84
2022-10-11T10:10:48.633Z,46.95
2022-10-11T10:13:25.616Z,46.65
2022-10-11T10:15:55.209Z,46.96
2022-10-11T10:18:32.931Z,46.96
2022-10-11T10:20:59.933Z,46.95
2022-10-11T10:23:30.021Z,46.55
2022-10-11T10:26:21.684Z,46.61
2022-10-11T10:29:04.889Z,46.92
2022-10-11T10:32:13.483Z,46.58
2022-10-11T10:35:09.840Z,46.48
2022-10-11T10:37:41.057Z,46.31
2022-10-11T10:40:09.363Z,46.42
2022-10-11T10:42:35.998Z,46.50
2022-10-11T10:45:02.902Z,46.51
2022-10-11T10:48:00.127Z,46.25
2022-10-11T10:50:39.925Z,46.03
2022-10-11T10:53:21.514Z,45.78
2022-10-11T10:55:54.762Z,46.00
2022-10-11T10:58:40.372Z,46.16
2022-10-11T11:01:24.505Z,46.41
2022-10-11T11:04:09.857Z,46.55
2022-10-11T11:06:56.412Z,46.27
2022-10-11T11:09:28.848Z,46.35
2022-10-11T11:12:22.961Z,46.32
2022-10-11T11:15:14.247Z,46.26
2022-10-11T11:17:43.580Z,46.56
2022-10-11T11:20:27.376Z,46.00
2022-10-11T11:23:12.869Z,46.51
2022-10-11T11:25:45.063Z,46.42
2022-10-11T11:28:39.616Z,46.34
2022-10-11T11:31:15.821Z,46.29
2022-10-11T11:34:06.855Z,46.35
2022-10-11T11:36:39.659Z,46.32
2022-10-11T11:39:11.318Z,45.97
2022-10-11T11:41:43.163Z,46.30
2022-10-11T11:44:28.665Z,46.50
2022-10-11T11:46:55.269Z,45.91
2022-10-11T11:49:36.279Z,46.36
2022-10-11T11:52:05.213Z,45.54
2022-10-11T11:54:52.092Z,45.40
2022-10-11T11:57:26.108Z,45.33
2022-10-11T12:00:16.031Z,45.62
2022-10-11T12:02:55.480Z,45.51
2022-10-11T12:05:28.600Z,45.86
2022-10-11T12:07:58.297Z,45.44
2022-10-11T12:10:33.842Z,44.80
2022-10-11T12:13:18.422Z,45.13
2022-10-11T12:16:14.762Z,44.90
2022-10-11T12:18:56.454Z,45.25
2022-10-11T12:21:33.137Z,45.07
2022-10-11T12:24:10.845Z,45.36
2022-10-11T12:26:40.309Z,45.00
2022-10-11T12:29:18.756Z,45.04
2022-10-11T12:31:47.174Z,45.06
2022-10-11T12:34:16.721Z,45.03
2022-10-11T12:36:50.697Z,45.50
2022-10-11T12:39:20.206Z,45.39
2022-10-11T12:41:55.543Z,45.11
2022-10-11T12:44:29.999Z,45.18
2022-10-11T12:46:57.907Z,44.82
2022-10-11T12:49:31.117Z,44.81
2022-10-11T12:52:24.863Z,44.89
2022-10-11T12:55:06.555Z,44.96
2022-10-11T12:57:54.639Z,45.05
2022-10-11T13:00:30.887Z,45.05
2022-10-11T13:03:02.307Z,45.19
2022-10-11T13:06:00.446Z,45.06
2022-10-11T13:08:36.373Z,44.92
2022-10-11T13:11:05.345Z,45.09
2022-10-11T13:13:35.051Z,45.11
2022-10-11T13:16:09.384Z,44.57
2022-10-11T13:18:36.072Z,44.87
2022-10-11T13:21:02.841Z,44.83
2022-10-11T13:23:35.651Z,44.67
2022-10-11T13:26:02.551Z,45.06
2022-10-11T13:28:34.156Z,45.12
2022-10-11T13:31:03.792Z,44.74
2022-10-11T13:33:33.126Z,45.01
2022-10-11T13:36:00.935Z,44.59
2022-10-11T13:38:30.745Z,44.50
2022-10-11T13:40:59.067Z,44.48
2022-10-11T13:43:27.612Z,44.41
2022-10-11T13:45:55.176Z,44.89
2022-10-11T13:48:22.261Z,44.31
2022-10-11T13:51:09.725Z,44.75
2022-10-11T13:53:36.419Z,44.49
2022-10-11T13:56:06.244Z,44.09
2022-10-11T13:58:40.565Z,44.46
2022-10-11T14:01:20.946Z,44.47
2022-10-11T14:03:52.106Z,44.23
2022-10-11T14:06:18.692Z,44.37
2022-10-11T14:08:48.284Z,44.52
2022-10-11T14:11:15.484Z,44.54
2022-10-11T14:13:44.240Z,44.51
2022-10-11T14:16:16.552Z,44.39
2022-10-11T14:18:51.005Z,44.68
2022-10-11T14:21:20.371Z,44.57
2022-10-11T14:23:49.989Z,44.41
2022-10-11T14:26:18.934Z,44.45
2022-10-11T14:28:46.488Z,44.53
2022-10-11T14:31:13.056Z,44.72
2022-10-11T14:33:39.695Z,44.57
2022-10-11T14:36:06.740Z,44.61
2022-10-11T14:38:33.455Z,44.54
2022-10-11T14:41:00.005Z,44.68
2022-10-11T14:43:26.546Z,44.64
2022-10-11T14:45:53.326Z,44.38
2022-10-11T14:48:43.200Z,44.45
2022-10-11T14:51:06.907Z,44.47
2022-10-11T14:53:36.356Z,44.69
2022-10-11T14:56:07.201Z,45.12
2022-10-11T14:58:33.981Z,44.96
2022-10-11T15:01:00.539Z,44.90
2022-10-11T15:03:27.078Z,44.65
2022-10-11T15:05:53.698Z,44.91
2022-10-11T15:08:20.287Z,44.80
2022-10-11T15:10:46.882Z,44.76
2022-10-11T15:13:13.439Z,45.00
2022-10-11T15:15:41.433Z,44.59
2022-10-11T15:18:11.119Z,44.92
2022-10-11T15:20:39.953Z,44.93
2022-10-11T15:23:09.455Z,44.94
2022-10-11T15:25:36.541Z,44.66
2022-10-11T15:28:03.598Z,44.97
2022-10-11T15:30:34.852Z,44.83
2022-10-11T15:33:04.778Z,45.50
2022-10-11T15:35:31.625Z,46.21
2022-10-11T15:38:00.245Z,47.37
2022-10-11T15:40:35.408Z,46.60
2022-10-11T15:43:02.396Z,46.17
2022-10-11T15:45:29.425Z,45.95
2022-10-11T15:47:56.172Z,45.83
2022-10-11T15:50:34.481Z,45.89
2022-10-11T15:53:02.825Z,45.54
2022-10-11T15:55:30.473Z,45.96
2022-10-11T15:57:57.413Z,45.89
2022-10-11T16:00:25.289Z,45.99
2022-10-11T16:02:52.500Z,45.90
2022-10-11T16:05:20.659Z,45.63
2022-10-11T16:07:47.442Z,45.48
2022-10-11T16:10:14.232Z,45.81
2022-10-11T16:12:40.766Z,45.64
2022-10-11T16:15:07.667Z,45.79
2022-10-11T16:17:34.254Z,45.47
2022-10-11T16:20:01.065Z,45.82
2022-10-11T16:22:27.841Z,45.73
2022-10-11T16:24:54.404Z,45.43
2022-10-11T16:27:21.031Z,45.75
2022-10-11T16:29:47.578Z,45.61
2022-10-11T16:32:14.234Z,45.26
2022-10-11T16:34:40.898Z,45.59
2022-10-11T16:37:07.448Z,45.49
2022-10-11T16:39:34.228Z,45.49
2022-10-11T16:42:00.794Z,45.82
2022-10-11T16:44:27.907Z,45.79
2022-10-11T16:46:55.546Z,45.71
2022-10-11T16:49:24.279Z,45.67
2022-10-11T16:51:51.886Z,45.69
2022-10-11T16:54:20.518Z,45.82
2022-10-11T16:56:50.699Z,45.84
2022-10-11T16:59:17.523Z,46.02
2022-10-11T17:01:45.121Z,45.84
2022-10-11T17:04:12.541Z,46.13
2022-10-11T17:06:44.018Z,45.77
2022-10-11T17:09:10.718Z,46.02
2022-10-11T17:11:37.245Z,45.97
2022-10-11T17:14:05.261Z,46.08
2022-10-11T17:16:31.829Z,46.37
2022-10-11T17:18:58.365Z,46.41
2022-10-11T17:21:25.029Z,46.38
2022-10-11T17:23:51.615Z,46.40
2022-10-11T17:26:26.241Z,46.19
2022-10-11T17:28:54.396Z,46.32
2022-10-11T17:31:21.370Z,46.40
2022-10-11T17:33:48.099Z,46.44
2022-10-11T17:36:31.759Z,46.03
2022-10-11T17:38:59.305Z,46.41
2022-10-11T17:41:30.934Z,46.48
2022-10-11T17:43:59.343Z,46.40
2022-10-11T17:46:27.648Z,46.54
2022-10-11T17:48:55.614Z,46.52
2022-10-11T17:51:22.241Z,46.56
2022-10-11T17:53:50.884Z,46.48
2022-10-11T17:56:23.905Z,46.30
2022-10-11T17:58:54.740Z,46.68
2022-10-11T18:01:24.036Z,46.14
2022-10-11T18:03:56.980Z,46.23
2022-10-11T18:06:25.212Z,46.24
2022-10-11T18:08:51.931Z,46.59
2022-10-11T18:11:20.333Z,46.74
2022-10-11T18:13:52.042Z,46.19
2022-10-11T18:16:21.399Z,46.48
2022-10-11T18:18:48.633Z,46.35
2022-10-11T18:21:16.173Z,46.45
2022-10-11T18:23:42.795Z,46.37
2022-10-11T18:26:16.440Z,46.28
2022-10-11T18:28:43.555Z,46.35
2022-10-11T18:31:17.474Z,46.51
2022-10-11T18:33:46.043Z,46.56
2022-10-11T18:36:15.393Z,46.43
2022-10-11T18:38:46.269Z,46.49
2022-10-11T18:41:15.109Z,46.64
2022-10-11T18:43:41.673Z,46.45
2022-10-11T18:46:13.004Z,46.41
2022-10-11T18:48:41.461Z,46.77
2022-10-11T18:51:11.774Z,46.70
2022-10-11T18:53:38.664Z,46.37
2022-10-11T18:56:08.515Z,46.52
2022-10-11T18:58:37.109Z,46.43
2022-10-11T19:01:25.114Z,46.82
2022-10-11T19:03:54.393Z,46.21
2022-10-11T19:06:24.105Z,46.55
2022-10-11T19:08:53.333Z,46.27
2022-10-11T19:11:22.223Z,46.42
2022-10-11T19:13:59.967Z,46.38
2022-10-11T19:16:27.397Z,46.52
2022-10-11T19:18:54.111Z,46.31
2022-10-11T19:21:20.964Z,46.33
2022-10-11T19:23:48.783Z,46.37
2022-10-11T19:26:18.081Z,46.44
2022-10-11T19:28:44.939Z,46.05
2022-10-11T19:31:14.399Z,46.15
2022-10-11T19:33:40.974Z,46.00
2022-10-11T19:36:07.818Z,46.28
2022-10-11T19:38:35.567Z,46.12
2022-10-11T19:41:03.514Z,45.95
2022-10-11T19:43:30.093Z,45.98
2022-10-11T19:46:07.591Z,46.10
2022-10-11T19:48:37.473Z,46.31
2022-10-11T19:51:09.447Z,46.23
2022-10-11T19:53:36.324Z,45.85
2022-10-11T19:56:11.559Z,45.69
2022-10-11T19:58:38.775Z,45.75
2022-10-11T20:01:17.741Z,45.94
2022-10-11T20:03:46.555Z,46.01
2022-10-11T20:06:13.652Z,45.79
2022-10-11T20:08:40.210Z,45.90
2022-10-11T20:11:09.213Z,45.95
2022-10-11T20:13:36.776Z,46.04
2022-10-11T20:16:09.119Z,46.18
2022-10-11T20:18:37.705Z,46.27
2022-10-11T20:21:07.515Z,46.24
2022-10-11T20:23:35.127Z,45.99
2022-10-11T20:26:05.097Z,45.93
2022-10-11T20:28:32.878Z,46.29
2022-10-11T20:31:00.376Z,46.07
2022-10-11T20:33:29.302Z,45.97
2022-10-11T20:36:06.489Z,46.03
2022-10-11T20:38:34.548Z,45.76
2022-10-11T20:41:12.246Z,45.97
2022-10-11T20:43:39.027Z,45.50
2022-10-11T20:46:07.992Z,45.57
2022-10-11T20:48:35.292Z,45.97
2022-10-11T20:51:02.187Z,45.86
2022-10-11T20:53:29.283Z,45.66
2022-10-11T20:55:56.266Z,46.04
2022-10-11T20:58:23.356Z,45.67
2022-10-11T21:00:49.931Z,45.90
2022-10-11T21:03:16.803Z,45.68
2022-10-11T21:05:44.461Z,45.73
2022-10-11T21:08:11.256Z,45.77
2022-10-11T21:10:37.797Z,45.40
2022-10-11T21:13:04.461Z,45.57
2022-10-11T21:15:31.537Z,45.79
2022-10-11T21:17:58.410Z,45.44
2022-10-11T21:20:25.525Z,45.36
2022-10-11T21:22:52.141Z,45.26
2022-10-11T21:25:18.684Z,45.43
2022-10-11T21:27:45.281Z,45.53
2022-10-11T21:30:11.813Z,45.51
2022-10-11T21:32:38.340Z,45.44
2022-10-11T21:35:04.903Z,45.29
2022-10-11T21:37:31.527Z,45.45
2022-10-11T21:39:58.299Z,45.38
2022-10-11T21:42:29.281Z,45.12
2022-10-11T21:44:56.209Z,45.27
2022-10-11T21:47:22.758Z,44.96
2022-10-11T21:49:49.299Z,45.20
2022-10-11T21:52:15.886Z,45.25
2022-10-11T21:54:42.422Z,45.01
2022-10-11T21:57:09.034Z,45.31
2022-10-11T21:59:35.661Z,45.00
2022-10-11T22:02:02.365Z,45.06
2022-10-11T22:04:28.986Z,45.22
2022-10-11T22:06:55.617Z,45.26
2022-10-11T22:09:22.221Z,45.23
2022-10-11T22:11:48.868Z,45.24
2022-10-11T22:14:16.053Z,45.35
2022-10-11T22:16:42.624Z,45.28
2022-10-11T22:19:09.156Z,45.13
2022-10-11T22:21:36.009Z,45.29
2022-10-11T22:24:02.597Z,45.52
2022-10-11T22:26:30.815Z,45.06
2022-10-11T22:28:58.548Z,45.30
2022-10-11T22:31:25.155Z,45.09
2022-10-11T22:33:56.249Z,45.04
2022-10-11T22:36:24.334Z,45.15
2022-10-11T22:38:51.698Z,45.28
2022-10-11T22:41:18.259Z,45.26
2022-10-11T22:43:44.820Z,45.34
2022-10-11T22:46:11.659Z,45.43
2022-10-11T22:48:38.204Z,45.50
2022-10-11T22:51:05.031Z,45.42
2022-10-11T22:53:31.786Z,45.16
2022-10-11T22:55:58.393Z,45.31
2022-10-11T22:58:25.004Z,45.46
2022-10-11T23:00:51.548Z,45.26
2022-10-11T23:03:18.572Z,45.30
2022-10-11T23:05:54.948Z,45.62
2022-10-11T23:08:21.542Z,45.38
2022-10-11T23:10:48.090Z,45.16
2022-10-11T23:13:14.637Z,45.01
2022-10-11T23:15:41.263Z,45.27
2022-10-11T23:18:07.830Z,45.43
2022-10-11T23:20:34.399Z,45.09
2022-10-11T23:23:00.931Z,45.39
2022-10-11T23:25:27.520Z,45.29
2022-10-11T23:27:54.061Z,45.60
2022-10-11T23:30:20.673Z,45.01
2022-10-11T23:32:47.222Z,45.45
2022-10-11T23:35:13.850Z,45.49
2022-10-11T23:37:40.515Z,45.41
2022-10-11T23:40:08.136Z,45.08
2022-10-11T23:42:34.683Z,45.43
2022-10-11T23:45:01.229Z,45.42
2022-10-11T23:47:27.786Z,45.26
2022-10-11T23:49:54.318Z,45.30
2022-10-11T23:52:20.912Z,45.59
2022-10-11T23:54:47.478Z,45.47
2022-10-11T23:57:14.060Z,45.47
2022-10-11T23:59:40.620Z,45.39
